createdAt,value
2017-12-31T00:00:10.890Z,2.87
2017-12-31T00:00:44.552Z,2.35
2017-12-31T00:01:18.974Z,2.20
2017-12-31T00:01:53.397Z,2.45
2017-12-31T00:02:27.063Z,2.65
2017-12-31T00:03:01.502Z,2.65
2017-12-31T00:03:35.172Z,2.45
2017-12-31T00:04:08.839Z,2.53
2017-12-31T00:04:43.310Z,2.58
2017-12-31T00:05:16.976Z,2.90
2017-12-31T00:05:50.616Z,2.40
2017-12-31T00:06:24.271Z,3.15
2017-12-31T00:06:57.935Z,2.30
2017-12-31T00:07:31.612Z,2.87
2017-12-31T00:08:07.054Z,2.75
2017-12-31T00:08:42.761Z,2.30
2017-12-31T00:09:17.178Z,2.62
2017-12-31T00:09:51.605Z,2.62
2017-12-31T00:10:25.286Z,2.62
2017-12-31T00:10:58.959Z,2.60
2017-12-31T00:11:33.385Z,2.08
2017-12-31T00:12:07.052Z,2.20
2017-12-31T00:12:41.471Z,2.70
2017-12-31T00:13:15.923Z,2.78
2017-12-31T00:13:49.595Z,2.50
2017-12-31T00:14:23.250Z,3.28
2017-12-31T00:14:57.698Z,2.80
2017-12-31T00:15:31.347Z,2.10
2017-12-31T00:16:05.768Z,2.65
2017-12-31T00:16:39.421Z,2.70
2017-12-31T00:17:13.087Z,2.25
2017-12-31T00:17:46.770Z,2.33
2017-12-31T00:18:20.456Z,2.65
2017-12-31T00:18:54.118Z,3.40
2017-12-31T00:19:27.781Z,2.45
2017-12-31T00:20:01.434Z,2.25
2017-12-31T00:20:35.093Z,2.00
2017-12-31T00:21:08.747Z,2.20
2017-12-31T00:21:42.401Z,2.37
2017-12-31T00:22:16.058Z,2.22
2017-12-31T00:22:49.720Z,2.50
2017-12-31T00:23:24.165Z,2.33
2017-12-31T00:23:57.823Z,2.00
2017-12-31T00:24:32.255Z,2.00
2017-12-31T00:25:05.910Z,1.98
2017-12-31T00:25:40.347Z,2.22
2017-12-31T00:26:14.020Z,2.10
2017-12-31T00:26:48.451Z,1.90
2017-12-31T00:27:22.102Z,2.10
2017-12-31T00:27:55.764Z,2.03
2017-12-31T00:28:29.485Z,1.80
2017-12-31T00:29:03.921Z,1.80
2017-12-31T00:29:37.577Z,1.80
2017-12-31T00:30:11.222Z,1.90
2017-12-31T00:30:44.868Z,1.80
2017-12-31T00:31:19.289Z,1.42
2017-12-31T00:31:52.942Z,1.27
2017-12-31T00:32:26.590Z,1.60
2017-12-31T00:33:00.566Z,1.45
2017-12-31T00:33:34.747Z,1.50
2017-12-31T00:34:09.182Z,1.40
2017-12-31T00:34:42.839Z,1.95
2017-12-31T00:35:17.266Z,1.60
2017-12-31T00:35:50.906Z,1.87
2017-12-31T00:36:24.591Z,1.92
2017-12-31T00:36:58.250Z,1.60
2017-12-31T00:37:31.913Z,1.40
2017-12-31T00:38:06.539Z,1.80
2017-12-31T00:38:40.330Z,1.98
2017-12-31T00:39:13.986Z,1.90
2017-12-31T00:39:47.348Z,2.10
2017-12-31T00:40:22.539Z,1.80
2017-12-31T00:40:56.217Z,2.20
2017-12-31T00:41:29.863Z,2.12
2017-12-31T00:42:03.515Z,2.15
2017-12-31T00:42:37.445Z,2.30
2017-12-31T00:43:11.100Z,2.33
2017-12-31T00:43:44.804Z,2.60
2017-12-31T00:44:18.466Z,2.50
2017-12-31T00:44:52.116Z,2.70
2017-12-31T00:45:26.624Z,2.40
2017-12-31T00:46:01.056Z,2.05
2017-12-31T00:46:34.698Z,2.28
2017-12-31T00:47:08.353Z,2.20
2017-12-31T00:47:42.014Z,1.77
2017-12-31T00:48:16.603Z,1.98
2017-12-31T00:48:50.313Z,2.10
2017-12-31T00:49:24.731Z,1.80
2017-12-31T00:49:58.382Z,2.20
2017-12-31T00:50:32.032Z,2.20
2017-12-31T00:51:05.699Z,1.60
2017-12-31T00:51:39.365Z,1.95
2017-12-31T00:52:13.786Z,1.90
2017-12-31T00:52:48.202Z,1.77
2017-12-31T00:53:21.854Z,1.62
2017-12-31T00:53:55.649Z,2.25
2017-12-31T00:54:29.309Z,1.67
2017-12-31T00:55:02.966Z,2.10
2017-12-31T00:55:36.641Z,2.33
2017-12-31T00:56:11.054Z,2.17
2017-12-31T00:56:44.721Z,2.20
2017-12-31T00:57:18.374Z,2.10
2017-12-31T00:57:52.029Z,1.92
2017-12-31T00:58:25.676Z,2.10
2017-12-31T00:58:59.463Z,2.10
2017-12-31T00:59:33.135Z,1.87
2017-12-31T01:00:06.790Z,2.00
2017-12-31T01:00:40.447Z,2.10
2017-12-31T01:01:14.865Z,2.37
2017-12-31T01:01:49.301Z,2.40
2017-12-31T01:02:22.972Z,2.30
2017-12-31T01:02:57.403Z,2.17
2017-12-31T01:03:31.046Z,2.22
2017-12-31T01:04:04.736Z,2.33
2017-12-31T01:04:38.391Z,2.00
2017-12-31T01:05:12.047Z,2.40
2017-12-31T01:05:45.790Z,2.40
2017-12-31T01:06:19.440Z,2.55
2017-12-31T01:06:53.105Z,2.15
2017-12-31T01:07:28.406Z,2.40
2017-12-31T01:08:02.067Z,2.35
2017-12-31T01:08:35.726Z,2.12
2017-12-31T01:09:09.402Z,2.20
2017-12-31T01:09:43.934Z,2.80
2017-12-31T01:10:17.583Z,2.35
2017-12-31T01:10:52.021Z,2.40
2017-12-31T01:11:25.710Z,2.40
2017-12-31T01:11:59.368Z,2.45
2017-12-31T01:12:33.013Z,2.60
2017-12-31T01:13:06.675Z,2.10
2017-12-31T01:13:40.334Z,2.40
2017-12-31T01:14:14.022Z,2.30
2017-12-31T01:14:47.920Z,2.15
2017-12-31T01:15:23.077Z,2.50
2017-12-31T01:15:56.730Z,2.50
2017-12-31T01:16:30.390Z,2.22
2017-12-31T01:17:04.049Z,2.25
2017-12-31T01:17:37.900Z,2.37
2017-12-31T01:18:15.297Z,2.35
2017-12-31T01:18:49.057Z,2.30
2017-12-31T01:19:22.781Z,2.40
2017-12-31T01:19:57.194Z,2.17
2017-12-31T01:20:30.846Z,2.47
2017-12-31T01:21:04.516Z,2.50
2017-12-31T01:21:38.170Z,2.70
2017-12-31T01:22:11.829Z,2.50
2017-12-31T01:22:48.672Z,2.40
2017-12-31T01:23:22.332Z,2.75
2017-12-31T01:23:55.994Z,2.87
2017-12-31T01:24:29.677Z,2.67
2017-12-31T01:25:04.090Z,2.53
2017-12-31T01:25:37.862Z,2.42
2017-12-31T01:26:12.295Z,2.20
2017-12-31T01:26:46.022Z,2.20
2017-12-31T01:27:20.005Z,2.17
2017-12-31T01:27:54.617Z,2.37
2017-12-31T01:28:29.197Z,2.40
2017-12-31T01:29:02.860Z,2.55
2017-12-31T01:29:36.538Z,2.53
2017-12-31T01:30:10.178Z,2.85
2017-12-31T01:30:43.830Z,2.60
2017-12-31T01:31:18.280Z,2.60
2017-12-31T01:31:51.946Z,2.60
2017-12-31T01:32:25.614Z,3.08
2017-12-31T01:32:59.360Z,2.75
2017-12-31T01:33:33.005Z,2.40
2017-12-31T01:34:07.428Z,2.22
2017-12-31T01:34:41.105Z,2.50
2017-12-31T01:35:15.534Z,2.50
2017-12-31T01:35:49.192Z,2.62
2017-12-31T01:36:23.615Z,2.80
2017-12-31T01:36:58.040Z,3.05
2017-12-31T01:37:31.689Z,2.80
2017-12-31T01:38:06.853Z,2.87
2017-12-31T01:38:40.505Z,2.92
2017-12-31T01:39:14.170Z,2.55
2017-12-31T01:39:47.864Z,2.90
2017-12-31T01:40:21.523Z,3.08
2017-12-31T01:40:55.003Z,3.00
2017-12-31T01:41:28.660Z,2.70
2017-12-31T01:42:03.099Z,2.55
2017-12-31T01:42:36.750Z,2.62
2017-12-31T01:43:11.173Z,2.65
2017-12-31T01:43:44.826Z,2.92
2017-12-31T01:44:18.475Z,3.20
2017-12-31T01:44:52.164Z,3.10
2017-12-31T01:45:25.813Z,2.80
2017-12-31T01:46:00.222Z,3.10
2017-12-31T01:46:34.634Z,2.87
2017-12-31T01:47:09.047Z,3.20
2017-12-31T01:47:43.463Z,2.60
2017-12-31T01:48:17.169Z,2.65
2017-12-31T01:49:02.143Z,3.10
2017-12-31T01:49:35.794Z,2.50
2017-12-31T01:50:09.449Z,2.85
2017-12-31T01:50:43.102Z,3.20
2017-12-31T01:51:16.755Z,2.80
2017-12-31T01:51:50.429Z,2.50
2017-12-31T01:52:24.842Z,3.40
2017-12-31T01:52:59.264Z,2.45
2017-12-31T01:53:32.922Z,3.15
2017-12-31T01:54:06.591Z,3.10
2017-12-31T01:54:40.241Z,2.40
2017-12-31T01:55:13.928Z,3.03
2017-12-31T01:55:47.589Z,2.85
2017-12-31T01:56:21.997Z,2.83
2017-12-31T01:56:56.406Z,2.65
2017-12-31T01:57:30.837Z,3.10
2017-12-31T01:58:04.506Z,2.85
2017-12-31T01:58:38.938Z,3.08
2017-12-31T01:59:12.593Z,3.00
2017-12-31T01:59:46.255Z,3.15
2017-12-31T02:00:19.941Z,3.00
2017-12-31T02:00:53.597Z,3.20
2017-12-31T02:01:27.244Z,2.87
2017-12-31T02:02:00.894Z,2.87
2017-12-31T02:02:34.542Z,3.12
2017-12-31T02:03:08.967Z,3.37
2017-12-31T02:03:42.286Z,2.62
2017-12-31T02:04:15.940Z,2.65
2017-12-31T02:04:49.593Z,2.80
2017-12-31T02:05:24.043Z,2.70
2017-12-31T02:05:57.691Z,2.55
2017-12-31T02:06:32.110Z,2.75
2017-12-31T02:07:06.535Z,2.70
2017-12-31T02:07:40.174Z,2.78
2017-12-31T02:08:13.817Z,2.70
2017-12-31T02:08:47.482Z,2.80
2017-12-31T02:09:21.913Z,2.83
2017-12-31T02:09:55.619Z,2.60
2017-12-31T02:10:29.666Z,2.80
2017-12-31T02:11:04.108Z,2.92
2017-12-31T02:11:37.760Z,2.80
2017-12-31T02:12:12.193Z,2.55
2017-12-31T02:12:45.837Z,3.20
2017-12-31T02:13:19.482Z,2.42
2017-12-31T02:13:53.137Z,2.40
2017-12-31T02:14:27.568Z,3.10
2017-12-31T02:15:00.890Z,2.87
2017-12-31T02:15:34.577Z,2.70
2017-12-31T02:16:08.241Z,3.20
2017-12-31T02:16:41.890Z,2.80
2017-12-31T02:17:16.526Z,3.40
2017-12-31T02:17:50.193Z,3.40
2017-12-31T02:18:24.606Z,3.37
2017-12-31T02:18:59.015Z,3.58
2017-12-31T02:19:33.456Z,2.95
2017-12-31T02:20:07.106Z,3.40
2017-12-31T02:20:41.567Z,3.15
2017-12-31T02:21:15.235Z,2.97
2017-12-31T02:21:48.890Z,3.15
2017-12-31T02:22:23.306Z,3.28
2017-12-31T02:22:57.729Z,3.10
2017-12-31T02:23:32.288Z,2.95
2017-12-31T02:24:05.941Z,2.30
2017-12-31T02:24:39.595Z,2.97
2017-12-31T02:25:14.007Z,2.60
2017-12-31T02:25:48.446Z,2.50
2017-12-31T02:26:22.114Z,2.50
2017-12-31T02:26:56.538Z,2.65
2017-12-31T02:27:30.190Z,2.50
2017-12-31T02:28:03.838Z,2.67
2017-12-31T02:28:37.498Z,2.60
2017-12-31T02:29:11.151Z,2.35
2017-12-31T02:29:44.805Z,2.10
2017-12-31T02:30:18.470Z,2.53
2017-12-31T02:30:52.137Z,2.42
2017-12-31T02:31:26.555Z,2.20
2017-12-31T02:32:00.236Z,2.67
2017-12-31T02:32:34.666Z,2.20
2017-12-31T02:33:08.318Z,1.80
2017-12-31T02:33:42.732Z,2.30
2017-12-31T02:34:17.149Z,2.20
2017-12-31T02:34:52.055Z,2.20
2017-12-31T02:35:26.481Z,2.37
2017-12-31T02:36:00.151Z,2.05
2017-12-31T02:36:34.571Z,1.95
2017-12-31T02:37:09.030Z,1.50
2017-12-31T02:37:42.690Z,1.80
2017-12-31T02:38:16.337Z,2.20
2017-12-31T02:38:50.085Z,1.75
2017-12-31T02:39:23.725Z,1.50
2017-12-31T02:39:58.138Z,2.08
2017-12-31T02:40:32.554Z,2.05
2017-12-31T02:41:07.007Z,1.90
2017-12-31T02:41:40.657Z,1.85
2017-12-31T02:42:14.306Z,2.20
2017-12-31T02:42:47.956Z,2.25
2017-12-31T02:43:21.606Z,2.00
2017-12-31T02:43:56.026Z,2.17
2017-12-31T02:44:29.687Z,2.03
2017-12-31T02:45:03.334Z,2.83
2017-12-31T02:45:36.986Z,2.10
2017-12-31T02:46:11.449Z,2.20
2017-12-31T02:46:45.114Z,2.05
2017-12-31T02:47:18.773Z,2.17
2017-12-31T02:47:53.201Z,1.98
2017-12-31T02:48:26.840Z,2.15
2017-12-31T02:49:00.486Z,2.17
2017-12-31T02:49:34.138Z,2.35
2017-12-31T02:50:08.592Z,2.22
2017-12-31T02:50:42.239Z,2.10
2017-12-31T02:51:16.704Z,2.42
2017-12-31T02:51:50.349Z,2.10
2017-12-31T02:52:24.008Z,1.90
2017-12-31T02:52:57.676Z,2.35
2017-12-31T02:53:31.321Z,2.28
2017-12-31T02:54:04.992Z,2.45
2017-12-31T02:54:39.081Z,2.55
2017-12-31T02:55:12.742Z,2.20
2017-12-31T02:55:46.392Z,2.83
2017-12-31T02:56:20.128Z,2.10
2017-12-31T02:56:53.779Z,2.40
2017-12-31T02:57:27.435Z,2.87
2017-12-31T02:58:01.858Z,2.45
2017-12-31T02:58:35.521Z,2.97
2017-12-31T02:59:09.177Z,2.70
2017-12-31T02:59:42.845Z,2.03
2017-12-31T03:00:16.492Z,2.40
2017-12-31T03:00:50.144Z,2.50
2017-12-31T03:01:23.833Z,2.20
2017-12-31T03:01:57.483Z,2.20
2017-12-31T03:02:31.133Z,2.10
2017-12-31T03:03:04.783Z,2.05
2017-12-31T03:03:38.433Z,1.90
2017-12-31T03:04:12.863Z,2.42
2017-12-31T03:04:46.540Z,2.05
2017-12-31T03:05:20.950Z,1.75
2017-12-31T03:05:55.371Z,2.08
2017-12-31T03:06:29.331Z,2.00
2017-12-31T03:07:02.984Z,2.10
2017-12-31T03:07:36.634Z,2.00
2017-12-31T03:08:10.278Z,1.90
2017-12-31T03:08:43.935Z,2.10
2017-12-31T03:09:17.584Z,2.20
2017-12-31T03:09:52.000Z,2.10
2017-12-31T03:10:26.419Z,2.50
2017-12-31T03:11:01.036Z,1.70
2017-12-31T03:11:34.710Z,1.85
2017-12-31T03:12:09.126Z,1.83
2017-12-31T03:12:42.774Z,2.17
2017-12-31T03:13:16.426Z,1.98
2017-12-31T03:13:50.081Z,1.90
2017-12-31T03:14:24.503Z,2.40
2017-12-31T03:14:58.155Z,2.28
2017-12-31T03:15:32.018Z,1.90
2017-12-31T03:16:05.670Z,2.47
2017-12-31T03:16:39.341Z,2.03
2017-12-31T03:17:13.756Z,2.40
2017-12-31T03:17:47.841Z,2.42
2017-12-31T03:18:21.507Z,2.40
2017-12-31T03:18:55.270Z,2.78
2017-12-31T03:19:28.917Z,2.10
2017-12-31T03:20:03.337Z,2.50
2017-12-31T03:20:37.769Z,2.53
2017-12-31T03:21:11.430Z,2.70
2017-12-31T03:21:45.542Z,2.30
2017-12-31T03:22:19.200Z,2.62
2017-12-31T03:22:52.858Z,2.67
2017-12-31T03:23:26.510Z,2.60
2017-12-31T03:24:00.170Z,2.62
2017-12-31T03:24:33.822Z,2.80
2017-12-31T03:25:07.483Z,3.05
2017-12-31T03:25:41.140Z,2.90
2017-12-31T03:26:15.571Z,2.65
2017-12-31T03:26:49.261Z,2.95
2017-12-31T03:27:22.903Z,2.72
2017-12-31T03:27:56.550Z,2.50
2017-12-31T03:28:30.199Z,3.33
2017-12-31T03:29:03.853Z,2.60
2017-12-31T03:29:37.504Z,2.95
2017-12-31T03:30:11.162Z,2.80
2017-12-31T03:30:44.832Z,3.00
2017-12-31T03:31:18.488Z,2.40
2017-12-31T03:31:52.179Z,3.05
2017-12-31T03:32:25.825Z,2.80
2017-12-31T03:32:59.482Z,2.65
2017-12-31T03:33:33.144Z,2.28
2017-12-31T03:34:06.791Z,3.30
2017-12-31T03:34:41.238Z,2.95
2017-12-31T03:35:14.892Z,2.22
2017-12-31T03:35:49.318Z,2.40
2017-12-31T03:36:22.987Z,2.65
2017-12-31T03:36:56.671Z,2.90
2017-12-31T03:37:30.312Z,2.70
2017-12-31T03:38:03.990Z,2.37
2017-12-31T03:38:37.636Z,2.55
2017-12-31T03:39:11.287Z,2.90
2017-12-31T03:39:44.946Z,3.15
2017-12-31T03:40:18.611Z,2.80
2017-12-31T03:40:53.024Z,2.72
2017-12-31T03:41:27.444Z,3.00
2017-12-31T03:42:01.113Z,2.50
2017-12-31T03:42:35.535Z,2.60
2017-12-31T03:43:09.953Z,3.22
2017-12-31T03:43:43.596Z,2.95
2017-12-31T03:44:17.245Z,2.62
2017-12-31T03:44:50.902Z,2.70
2017-12-31T03:45:25.913Z,2.80
2017-12-31T03:46:00.342Z,3.12
2017-12-31T03:46:34.010Z,3.40
2017-12-31T03:47:07.693Z,2.55
2017-12-31T03:47:41.335Z,2.85
2017-12-31T03:48:14.990Z,2.85
2017-12-31T03:48:49.406Z,3.20
2017-12-31T03:49:23.063Z,3.00
2017-12-31T03:49:56.720Z,3.50
2017-12-31T03:50:30.386Z,3.25
2017-12-31T03:51:04.039Z,3.15
2017-12-31T03:51:37.699Z,3.40
2017-12-31T03:52:11.398Z,3.22
2017-12-31T03:52:45.061Z,3.20
2017-12-31T03:53:18.722Z,3.12
2017-12-31T03:53:52.387Z,3.15
2017-12-31T03:54:26.045Z,3.08
2017-12-31T03:54:59.697Z,3.40
2017-12-31T03:55:33.364Z,3.10
2017-12-31T03:56:07.777Z,3.15
2017-12-31T03:56:42.190Z,2.95
2017-12-31T03:57:16.639Z,2.92
2017-12-31T03:57:50.301Z,3.10
2017-12-31T03:58:23.967Z,3.85
2017-12-31T03:58:58.380Z,3.35
2017-12-31T03:59:32.801Z,3.30
2017-12-31T04:00:06.473Z,3.58
2017-12-31T04:00:40.909Z,3.47
2017-12-31T04:01:14.245Z,3.00
2017-12-31T04:01:47.908Z,3.55
2017-12-31T04:02:21.594Z,3.83
2017-12-31T04:02:55.253Z,3.75
2017-12-31T04:03:28.906Z,4.10
2017-12-31T04:04:03.332Z,3.40
2017-12-31T04:04:36.981Z,3.62
2017-12-31T04:05:10.637Z,3.78
2017-12-31T04:05:44.299Z,4.40
2017-12-31T04:06:18.714Z,4.80
2017-12-31T04:06:52.367Z,4.70
2017-12-31T04:07:26.825Z,3.70
2017-12-31T04:08:00.478Z,4.40
2017-12-31T04:08:34.900Z,4.43
2017-12-31T04:09:08.560Z,4.18
2017-12-31T04:09:42.210Z,4.60
2017-12-31T04:10:15.854Z,4.25
2017-12-31T04:10:50.286Z,4.40
2017-12-31T04:11:23.950Z,3.97
2017-12-31T04:11:58.362Z,4.65
2017-12-31T04:12:32.819Z,4.95
2017-12-31T04:13:06.481Z,4.32
2017-12-31T04:13:40.138Z,4.87
2017-12-31T04:14:14.557Z,4.30
2017-12-31T04:14:48.965Z,4.70
2017-12-31T04:15:23.211Z,4.32
2017-12-31T04:15:56.878Z,4.40
2017-12-31T04:16:30.526Z,4.32
2017-12-31T04:17:04.159Z,4.72
2017-12-31T04:17:37.838Z,4.15
2017-12-31T04:18:11.484Z,4.82
2017-12-31T04:18:45.132Z,4.00
2017-12-31T04:19:18.778Z,4.90
2017-12-31T04:19:53.185Z,4.50
2017-12-31T04:20:26.830Z,4.72
2017-12-31T04:21:00.485Z,3.78
2017-12-31T04:21:34.146Z,4.10
2017-12-31T04:22:08.594Z,4.57
2017-12-31T04:22:42.286Z,4.68
2017-12-31T04:23:15.938Z,4.65
2017-12-31T04:23:50.357Z,4.50
2017-12-31T04:24:25.687Z,4.22
2017-12-31T04:25:00.116Z,4.95
2017-12-31T04:25:33.770Z,4.12
2017-12-31T04:26:08.213Z,3.85
2017-12-31T04:26:41.860Z,4.30
2017-12-31T04:27:15.502Z,4.70
2017-12-31T04:27:49.180Z,4.20
2017-12-31T04:28:22.838Z,4.00
2017-12-31T04:28:57.258Z,5.05
2017-12-31T04:29:31.682Z,4.62
2017-12-31T04:30:05.330Z,5.18
2017-12-31T04:30:38.978Z,4.25
2017-12-31T04:31:12.648Z,4.53
2017-12-31T04:31:46.312Z,5.32
2017-12-31T04:32:20.730Z,5.12
2017-12-31T04:32:55.161Z,5.18
2017-12-31T04:33:28.805Z,4.45
2017-12-31T04:34:02.454Z,5.05
2017-12-31T04:34:36.109Z,5.37
2017-12-31T04:35:09.761Z,5.62
2017-12-31T04:35:43.408Z,4.93
2017-12-31T04:36:17.087Z,4.85
2017-12-31T04:36:50.737Z,4.80
2017-12-31T04:37:24.380Z,5.28
2017-12-31T04:37:58.064Z,5.12
2017-12-31T04:38:31.806Z,5.45
2017-12-31T04:39:04.780Z,5.53
2017-12-31T04:39:38.436Z,5.53
2017-12-31T04:40:12.087Z,5.47
2017-12-31T04:40:45.847Z,5.07
2017-12-31T04:41:19.493Z,6.05
2017-12-31T04:41:53.161Z,5.00
2017-12-31T04:42:26.813Z,5.40
2017-12-31T04:43:01.270Z,5.15
2017-12-31T04:43:34.914Z,5.82
2017-12-31T04:44:08.595Z,5.18
2017-12-31T04:44:42.409Z,4.82
2017-12-31T04:45:16.833Z,5.03
2017-12-31T04:45:50.653Z,4.72
2017-12-31T04:46:24.294Z,4.70
2017-12-31T04:46:58.705Z,5.35
2017-12-31T04:47:33.114Z,5.10
2017-12-31T04:48:07.544Z,4.75
2017-12-31T04:48:41.234Z,4.60
2017-12-31T04:49:15.060Z,4.70
2017-12-31T04:49:48.766Z,5.45
2017-12-31T04:50:22.422Z,4.65
2017-12-31T04:50:56.083Z,5.32
2017-12-31T04:51:30.485Z,5.35
2017-12-31T04:52:04.893Z,5.65
2017-12-31T04:52:39.322Z,5.50
2017-12-31T04:53:12.992Z,5.68
2017-12-31T04:53:47.412Z,5.50
2017-12-31T04:54:21.050Z,5.20
2017-12-31T04:54:54.709Z,5.68
2017-12-31T04:55:28.368Z,5.32
2017-12-31T04:56:02.772Z,5.15
2017-12-31T04:56:36.429Z,6.60
2017-12-31T04:57:10.071Z,5.57
2017-12-31T04:57:43.736Z,5.55
2017-12-31T04:58:18.179Z,5.45
2017-12-31T04:58:51.834Z,6.00
2017-12-31T04:59:26.245Z,5.12
2017-12-31T04:59:59.884Z,6.50
2017-12-31T05:00:33.533Z,6.85
2017-12-31T05:01:07.180Z,5.60
2017-12-31T05:01:40.818Z,6.15
2017-12-31T05:02:14.507Z,6.53
2017-12-31T05:02:48.170Z,6.65
2017-12-31T05:03:22.609Z,7.07
2017-12-31T05:03:56.465Z,6.80
2017-12-31T05:04:30.872Z,5.80
2017-12-31T05:05:05.282Z,6.05
2017-12-31T05:05:39.717Z,6.65
2017-12-31T05:06:13.369Z,6.47
2017-12-31T05:06:47.785Z,6.15
2017-12-31T05:07:22.209Z,6.22
2017-12-31T05:07:55.860Z,6.72
2017-12-31T05:08:29.537Z,5.60
2017-12-31T05:09:03.002Z,7.10
2017-12-31T05:09:36.666Z,7.10
2017-12-31T05:10:10.330Z,6.62
2017-12-31T05:10:44.751Z,6.85
2017-12-31T05:11:18.405Z,6.40
2017-12-31T05:11:52.059Z,7.07
2017-12-31T05:12:25.702Z,7.05
2017-12-31T05:13:00.114Z,6.75
2017-12-31T05:13:34.557Z,6.87
2017-12-31T05:14:08.213Z,6.90
2017-12-31T05:14:42.638Z,6.28
2017-12-31T05:15:16.290Z,7.12
2017-12-31T05:15:49.935Z,6.32
2017-12-31T05:16:23.580Z,7.07
2017-12-31T05:16:57.993Z,7.53
2017-12-31T05:17:32.410Z,7.43
2017-12-31T05:18:06.050Z,6.10
2017-12-31T05:18:39.714Z,6.50
2017-12-31T05:19:13.363Z,6.40
2017-12-31T05:19:47.801Z,6.90
2017-12-31T05:20:21.458Z,6.85
2017-12-31T05:20:55.878Z,6.70
2017-12-31T05:21:29.541Z,7.15
2017-12-31T05:22:03.198Z,7.32
2017-12-31T05:22:36.845Z,7.60
2017-12-31T05:23:10.505Z,7.87
2017-12-31T05:23:44.182Z,6.87
2017-12-31T05:24:17.871Z,7.20
2017-12-31T05:24:51.523Z,7.28
2017-12-31T05:25:25.174Z,7.35
2017-12-31T05:25:59.593Z,6.70
2017-12-31T05:26:34.002Z,7.00
2017-12-31T05:27:07.645Z,7.40
2017-12-31T05:27:41.303Z,7.32
2017-12-31T05:28:14.962Z,7.28
2017-12-31T05:28:49.411Z,7.40
2017-12-31T05:29:23.051Z,6.75
2017-12-31T05:29:57.464Z,7.32
2017-12-31T05:30:31.882Z,7.32
2017-12-31T05:31:05.534Z,8.05
2017-12-31T05:31:39.176Z,7.47
2017-12-31T05:32:12.830Z,7.65
2017-12-31T05:32:47.236Z,7.47
2017-12-31T05:33:21.661Z,7.50
2017-12-31T05:33:55.333Z,7.45
2017-12-31T05:34:30.105Z,7.50
2017-12-31T05:35:03.759Z,6.72
2017-12-31T05:35:37.401Z,6.97
2017-12-31T05:36:11.045Z,7.68
2017-12-31T05:36:44.710Z,7.80
2017-12-31T05:37:19.133Z,8.55
2017-12-31T05:37:52.799Z,8.05
2017-12-31T05:38:27.209Z,7.70
2017-12-31T05:39:01.670Z,7.25
2017-12-31T05:39:35.324Z,8.05
2017-12-31T05:40:08.989Z,8.00
2017-12-31T05:40:43.402Z,6.93
2017-12-31T05:41:17.830Z,7.87
2017-12-31T05:41:51.491Z,7.20
2017-12-31T05:42:25.149Z,7.35
2017-12-31T05:42:58.812Z,7.78
2017-12-31T05:43:32.466Z,7.15
2017-12-31T05:44:06.910Z,7.53
2017-12-31T05:44:40.565Z,7.15
2017-12-31T05:45:14.983Z,7.78
2017-12-31T05:45:48.637Z,7.43
2017-12-31T05:46:22.296Z,7.97
2017-12-31T05:46:55.958Z,8.20
2017-12-31T05:47:29.623Z,8.00
2017-12-31T05:48:03.722Z,6.78
2017-12-31T05:48:38.151Z,8.38
2017-12-31T05:49:11.834Z,7.20
2017-12-31T05:49:45.494Z,8.55
2017-12-31T05:50:19.158Z,8.73
2017-12-31T05:50:52.821Z,7.82
2017-12-31T05:51:26.482Z,7.28
2017-12-31T05:52:00.901Z,8.38
2017-12-31T05:52:34.553Z,7.78
2017-12-31T05:53:09.736Z,8.20
2017-12-31T05:53:43.393Z,8.50
2017-12-31T05:54:17.860Z,8.10
2017-12-31T05:54:51.514Z,8.57
2017-12-31T05:55:25.172Z,8.05
2017-12-31T05:55:59.595Z,8.38
2017-12-31T05:56:33.249Z,8.38
2017-12-31T05:57:06.902Z,7.80
2017-12-31T05:57:40.553Z,8.30
2017-12-31T05:58:14.982Z,8.18
2017-12-31T05:58:48.658Z,9.00
2017-12-31T05:59:22.362Z,8.50
2017-12-31T05:59:56.027Z,9.05
2017-12-31T06:00:30.452Z,8.48
2017-12-31T06:01:04.111Z,7.65
2017-12-31T06:01:38.542Z,8.27
2017-12-31T06:02:12.209Z,8.30
2017-12-31T06:02:46.646Z,8.57
2017-12-31T06:03:20.308Z,8.90
2017-12-31T06:03:54.741Z,9.52
2017-12-31T06:04:28.429Z,8.35
2017-12-31T06:05:02.079Z,7.90
2017-12-31T06:05:35.748Z,7.95
2017-12-31T06:06:09.418Z,9.02
2017-12-31T06:06:43.083Z,7.82
2017-12-31T06:07:16.744Z,7.87
2017-12-31T06:07:50.409Z,9.65
2017-12-31T06:08:29.579Z,8.40
2017-12-31T06:09:02.905Z,8.48
2017-12-31T06:09:36.603Z,9.68
2017-12-31T06:10:10.265Z,8.63
2017-12-31T06:10:43.925Z,9.05
2017-12-31T06:11:17.611Z,8.50
2017-12-31T06:11:52.042Z,8.80
2017-12-31T06:12:25.718Z,8.05
2017-12-31T06:12:59.378Z,8.70
2017-12-31T06:13:33.049Z,8.55
2017-12-31T06:14:06.702Z,8.45
2017-12-31T06:14:40.386Z,9.20
2017-12-31T06:15:14.049Z,8.55
2017-12-31T06:15:47.710Z,9.88
2017-12-31T06:16:21.357Z,8.00
2017-12-31T06:16:55.019Z,7.95
2017-12-31T06:17:29.440Z,9.10
2017-12-31T06:18:03.113Z,8.68
2017-12-31T06:18:37.534Z,7.70
2017-12-31T06:19:11.201Z,8.82
2017-12-31T06:19:45.645Z,8.23
2017-12-31T06:20:19.310Z,8.90
2017-12-31T06:20:53.409Z,8.07
2017-12-31T06:21:27.063Z,9.35
2017-12-31T06:22:00.728Z,8.80
2017-12-31T06:22:34.389Z,8.55
2017-12-31T06:23:07.862Z,8.90
2017-12-31T06:23:42.282Z,8.20
2017-12-31T06:24:15.943Z,8.50
2017-12-31T06:24:49.633Z,8.30
2017-12-31T06:25:24.072Z,9.20
2017-12-31T06:25:57.730Z,8.50
2017-12-31T06:26:32.173Z,8.98
2017-12-31T06:27:05.830Z,9.30
2017-12-31T06:27:40.250Z,9.43
2017-12-31T06:28:13.918Z,9.20
2017-12-31T06:28:47.586Z,9.13
2017-12-31T06:29:21.247Z,8.90
2017-12-31T06:29:54.935Z,8.98
2017-12-31T06:30:28.595Z,9.45
2017-12-31T06:31:03.033Z,9.32
2017-12-31T06:31:36.698Z,10.73
2017-12-31T06:32:10.361Z,9.40
2017-12-31T06:32:44.060Z,9.88
2017-12-31T06:33:18.487Z,8.73
2017-12-31T06:33:52.179Z,9.25
2017-12-31T06:34:25.890Z,9.65
2017-12-31T06:34:59.397Z,9.68
2017-12-31T06:35:33.057Z,9.75
2017-12-31T06:36:06.714Z,9.80
2017-12-31T06:36:41.141Z,9.00
2017-12-31T06:37:14.802Z,9.80
2017-12-31T06:37:49.226Z,9.60
2017-12-31T06:38:23.646Z,9.27
2017-12-31T06:38:57.311Z,9.43
2017-12-31T06:39:31.734Z,9.65
2017-12-31T06:40:05.421Z,8.75
2017-12-31T06:40:39.864Z,9.18
2017-12-31T06:41:13.525Z,10.23
2017-12-31T06:41:47.177Z,9.60
2017-12-31T06:42:20.851Z,10.60
2017-12-31T06:42:54.518Z,10.10
2017-12-31T06:43:28.178Z,8.98
2017-12-31T06:44:01.850Z,10.05
2017-12-31T06:44:36.272Z,9.68
2017-12-31T06:45:09.965Z,10.95
2017-12-31T06:45:43.634Z,11.45
2017-12-31T06:46:18.063Z,10.32
2017-12-31T06:46:51.739Z,10.15
2017-12-31T06:47:26.180Z,9.65
2017-12-31T06:47:59.855Z,10.30
2017-12-31T06:48:33.531Z,10.77
2017-12-31T06:49:07.971Z,9.45
2017-12-31T06:49:41.631Z,10.02
2017-12-31T06:50:15.316Z,9.60
2017-12-31T06:50:49.758Z,9.45
2017-12-31T06:51:23.414Z,9.50
2017-12-31T06:51:57.839Z,10.30
2017-12-31T06:52:31.599Z,9.63
2017-12-31T06:53:06.039Z,10.32
2017-12-31T06:53:39.713Z,10.63
2017-12-31T06:54:14.142Z,9.43
2017-12-31T06:54:47.804Z,9.73
2017-12-31T06:55:21.528Z,9.55
2017-12-31T06:55:55.194Z,10.18
2017-12-31T06:56:28.872Z,10.70
2017-12-31T06:57:03.294Z,9.75
2017-12-31T06:57:36.963Z,9.82
2017-12-31T06:58:11.382Z,9.15
2017-12-31T06:58:45.478Z,9.88
2017-12-31T06:59:19.723Z,10.48
2017-12-31T06:59:53.419Z,10.10
2017-12-31T07:00:27.118Z,9.60
2017-12-31T07:01:00.788Z,10.25
2017-12-31T07:01:34.439Z,9.52
2017-12-31T07:02:08.878Z,10.88
2017-12-31T07:02:42.548Z,10.00
2017-12-31T07:03:16.226Z,9.95
2017-12-31T07:03:50.653Z,8.93
2017-12-31T07:04:24.316Z,9.15
2017-12-31T07:04:58.736Z,8.27
2017-12-31T07:05:32.436Z,9.02
2017-12-31T07:06:06.104Z,9.15
2017-12-31T07:06:40.570Z,9.63
2017-12-31T07:07:14.245Z,8.68
2017-12-31T07:07:47.899Z,8.88
2017-12-31T07:08:22.342Z,9.05
2017-12-31T07:08:55.995Z,9.02
2017-12-31T07:09:30.411Z,8.88
2017-12-31T07:10:03.739Z,9.43
2017-12-31T07:10:37.434Z,10.02
2017-12-31T07:11:11.086Z,9.25
2017-12-31T07:11:44.750Z,8.90
2017-12-31T07:12:19.180Z,9.93
2017-12-31T07:12:52.851Z,9.57
2017-12-31T07:13:26.515Z,9.23
2017-12-31T07:14:00.964Z,8.65
2017-12-31T07:14:34.625Z,9.13
2017-12-31T07:15:09.083Z,9.15
2017-12-31T07:15:42.773Z,9.52
2017-12-31T07:16:16.445Z,9.32
2017-12-31T07:16:49.784Z,8.68
2017-12-31T07:17:24.215Z,9.48
2017-12-31T07:17:57.868Z,8.65
2017-12-31T07:18:31.529Z,9.27
2017-12-31T07:19:05.180Z,9.70
2017-12-31T07:19:38.838Z,9.23
2017-12-31T07:20:12.492Z,8.30
2017-12-31T07:20:46.197Z,8.75
2017-12-31T07:21:19.866Z,9.18
2017-12-31T07:21:53.529Z,9.60
2017-12-31T07:22:27.182Z,9.63
2017-12-31T07:23:00.860Z,10.55
2017-12-31T07:23:34.526Z,10.10
2017-12-31T07:24:08.202Z,11.02
2017-12-31T07:24:41.538Z,10.35
2017-12-31T07:25:15.964Z,10.57
2017-12-31T07:25:50.410Z,10.00
2017-12-31T07:26:24.068Z,9.73
2017-12-31T07:26:57.722Z,9.20
2017-12-31T07:27:31.381Z,9.02
2017-12-31T07:28:05.034Z,8.68
2017-12-31T07:28:39.470Z,8.70
2017-12-31T07:29:13.120Z,9.02
2017-12-31T07:29:47.555Z,7.95
2017-12-31T07:30:21.238Z,8.00
2017-12-31T07:30:54.933Z,7.87